createdAt,value
2022-12-13T00:01:24.520Z,5.78
2022-12-13T00:03:59.348Z,4.97
2022-12-13T00:06:27.379Z,5.35
2022-12-13T00:08:54.758Z,4.75
2022-12-13T00:11:22.168Z,5.27
2022-12-13T00:13:49.284Z,4.40
2022-12-13T00:16:18.874Z,4.60
2022-12-13T00:18:55.312Z,5.17
2022-12-13T00:21:24.864Z,7.78
2022-12-13T00:23:52.346Z,6.50
2022-12-13T00:26:24.539Z,5.38
2022-12-13T00:28:52.828Z,5.72
2022-12-13T00:34:09.041Z,5.80
2022-12-13T00:36:36.130Z,5.38
2022-12-13T00:39:03.414Z,5.72
2022-12-13T00:41:33.995Z,6.85
2022-12-13T00:44:02.731Z,7.50
2022-12-13T00:46:30.290Z,5.35
2022-12-13T00:48:59.771Z,5.25
2022-12-13T00:51:29.573Z,4.47
2022-12-13T00:53:56.802Z,5.15
2022-12-13T00:56:25.997Z,4.45
2022-12-13T00:58:54.073Z,4.10
2022-12-13T01:01:24.409Z,3.88
2022-12-13T01:03:54.055Z,3.97
2022-12-13T01:06:24.773Z,4.10
2022-12-13T01:08:51.890Z,4.10
2022-12-13T01:11:19.084Z,3.97
2022-12-13T01:13:46.214Z,4.80
2022-12-13T01:16:13.790Z,3.90
2022-12-13T01:18:41.392Z,3.78
2022-12-13T01:21:12.173Z,3.53
2022-12-13T01:23:40.336Z,3.83
2022-12-13T01:26:10.279Z,3.47
2022-12-13T01:28:37.483Z,7.93
2022-12-13T01:31:10.717Z,3.95
2022-12-13T01:33:38.432Z,4.55
2022-12-13T01:36:11.989Z,4.85
2022-12-13T01:38:39.050Z,4.40
2022-12-13T01:41:16.839Z,4.20
2022-12-13T01:43:48.123Z,4.22
2022-12-13T01:46:17.031Z,5.03
2022-12-13T01:49:20.151Z,3.80
2022-12-13T01:52:02.802Z,4.22
2022-12-13T01:54:34.581Z,5.20
2022-12-13T01:57:05.508Z,4.70
2022-12-13T01:59:35.115Z,5.03
2022-12-13T02:02:02.415Z,4.47
2022-12-13T02:04:48.685Z,4.88
2022-12-13T02:07:22.924Z,4.47
2022-12-13T02:09:57.416Z,4.40
2022-12-13T02:12:30.854Z,4.80
2022-12-13T02:15:04.789Z,5.35
2022-12-13T02:17:44.621Z,4.68
2022-12-13T02:20:33.956Z,4.20
2022-12-13T02:23:21.993Z,4.23
2022-12-13T02:26:10.516Z,4.73
2022-12-13T02:28:56.459Z,3.95
2022-12-13T02:31:35.147Z,4.18
2022-12-13T02:34:11.007Z,3.80
2022-12-13T02:36:56.288Z,3.93
2022-12-13T02:39:30.624Z,3.85
2022-12-13T02:42:07.679Z,3.60
2022-12-13T02:44:58.945Z,3.90
2022-12-13T02:47:28.280Z,3.43
2022-12-13T02:49:59.161Z,3.30
2022-12-13T02:52:29.097Z,3.33
2022-12-13T02:54:57.129Z,3.58
2022-12-13T02:57:35.802Z,4.75
2022-12-13T03:00:12.370Z,3.95
2022-12-13T03:02:43.022Z,4.03
2022-12-13T03:05:45.741Z,3.47
2022-12-13T03:08:33.697Z,3.33
2022-12-13T03:11:07.964Z,3.30
2022-12-13T03:13:44.653Z,3.20
2022-12-13T03:16:34.383Z,3.38
2022-12-13T03:19:04.545Z,3.05
2022-12-13T03:21:47.395Z,3.20
2022-12-13T03:24:20.511Z,2.78
2022-12-13T03:26:49.889Z,2.88
2022-12-13T03:29:24.215Z,2.90
2022-12-13T03:31:53.226Z,3.00
2022-12-13T03:34:22.855Z,2.70
2022-12-13T03:36:52.007Z,2.90
2022-12-13T03:39:19.926Z,2.60
2022-12-13T03:41:47.118Z,3.20
2022-12-13T03:44:14.243Z,3.30
2022-12-13T03:46:41.367Z,3.20
2022-12-13T03:49:11.371Z,3.20
2022-12-13T03:51:42.346Z,2.90
2022-12-13T03:54:09.414Z,3.80
2022-12-13T03:56:36.495Z,3.33
2022-12-13T03:59:03.612Z,2.72
2022-12-13T04:01:30.673Z,3.20
2022-12-13T04:03:57.734Z,2.83
2022-12-13T04:06:29.814Z,3.28
2022-12-13T04:09:00.039Z,3.65
2022-12-13T04:11:45.903Z,3.15
2022-12-13T04:14:22.139Z,3.03
2022-12-13T04:16:52.111Z,2.95
2022-12-13T04:19:23.143Z,3.50
2022-12-13T04:21:54.011Z,3.40
2022-12-13T04:24:22.171Z,3.80
2022-12-13T04:27:02.130Z,3.75
2022-12-13T04:29:34.717Z,3.70
2022-12-13T04:32:05.736Z,5.07
2022-12-13T04:34:52.754Z,4.22
2022-12-13T04:37:28.554Z,3.42
2022-12-13T04:40:00.824Z,3.40
2022-12-13T04:42:28.462Z,3.25
2022-12-13T04:44:55.519Z,3.33
2022-12-13T04:47:22.595Z,3.27
2022-12-13T04:49:49.672Z,3.70
2022-12-13T04:52:22.221Z,3.13
2022-12-13T04:54:55.695Z,3.05
2022-12-13T04:57:23.840Z,3.03
2022-12-13T04:59:50.900Z,3.20
2022-12-13T05:02:23.735Z,3.55
2022-12-13T05:04:54.303Z,3.28
2022-12-13T05:07:22.651Z,3.10
2022-12-13T05:09:49.723Z,3.30
2022-12-13T05:12:21.917Z,3.17
2022-12-13T05:14:51.103Z,2.50
2022-12-13T05:17:18.214Z,3.00
2022-12-13T05:19:45.290Z,3.00
2022-12-13T05:22:19.860Z,3.03
2022-12-13T05:24:48.448Z,3.15
2022-12-13T05:27:24.908Z,2.85
2022-12-13T05:30:03.136Z,3.03
2022-12-13T05:32:43.465Z,3.88
2022-12-13T05:35:22.340Z,3.15
2022-12-13T05:37:55.403Z,2.92
2022-12-13T05:40:32.726Z,3.53
2022-12-13T05:43:01.317Z,3.30
2022-12-13T05:45:30.532Z,3.00
2022-12-13T05:47:58.076Z,3.17
2022-12-13T05:50:25.671Z,3.58
2022-12-13T05:52:53.092Z,3.92
2022-12-13T05:55:20.403Z,4.38
2022-12-13T05:57:50.615Z,3.72
2022-12-13T06:00:28.578Z,4.20
2022-12-13T06:03:00.912Z,4.53
2022-12-13T06:05:31.699Z,4.57
2022-12-13T06:07:59.190Z,4.13
2022-12-13T06:10:34.286Z,4.10
2022-12-13T06:13:21.948Z,4.13
2022-12-13T06:16:01.549Z,3.70
2022-12-13T06:18:32.347Z,4.07
2022-12-13T06:21:01.717Z,4.40
2022-12-13T06:23:30.708Z,3.95
2022-12-13T06:25:57.793Z,3.92
2022-12-13T06:28:24.890Z,3.80
2022-12-13T06:30:52.357Z,3.85
2022-12-13T06:33:23.703Z,3.33
2022-12-13T06:35:52.620Z,3.65
2022-12-13T06:38:21.997Z,6.57
2022-12-13T06:41:14.131Z,4.70
2022-12-13T06:43:46.522Z,3.93
2022-12-13T06:46:14.819Z,3.80
2022-12-13T06:48:42.046Z,3.65
2022-12-13T06:51:10.206Z,3.40
2022-12-13T06:53:39.434Z,3.40
2022-12-13T06:56:09.358Z,3.72
2022-12-13T06:58:36.998Z,3.77
2022-12-13T07:01:24.019Z,3.22
2022-12-13T07:03:55.742Z,2.72
2022-12-13T07:06:24.443Z,2.85
2022-12-13T07:08:53.970Z,3.35
2022-12-13T07:11:25.079Z,3.28
2022-12-13T07:13:52.731Z,3.10
2022-12-13T07:16:20.599Z,5.25
2022-12-13T07:18:47.699Z,4.70
2022-12-13T07:21:21.722Z,5.63
2022-12-13T07:23:55.110Z,4.43
2022-12-13T07:26:23.248Z,5.40
2022-12-13T07:28:55.137Z,5.18
2022-12-13T07:31:24.172Z,4.88
2022-12-13T07:33:52.204Z,6.83
2022-12-13T07:36:23.552Z,6.97
2022-12-13T07:38:52.536Z,6.77
2022-12-13T07:41:23.629Z,4.63
2022-12-13T07:43:55.547Z,7.18
2022-12-13T07:46:32.182Z,11.65
2022-12-13T07:49:02.615Z,7.15
2022-12-13T07:51:29.745Z,14.40
2022-12-13T07:53:57.800Z,8.63
2022-12-13T07:56:24.882Z,10.32
2022-12-13T07:58:51.940Z,9.20
2022-12-13T08:01:19.077Z,8.85
2022-12-13T08:03:48.285Z,8.07
2022-12-13T08:06:15.456Z,8.47
2022-12-13T08:08:42.560Z,7.70
2022-12-13T08:11:12.278Z,7.57
2022-12-13T08:13:40.770Z,7.40
2022-12-13T08:16:27.260Z,7.13
2022-12-13T08:19:03.119Z,9.75
2022-12-13T08:24:25.041Z,8.67
2022-12-13T08:26:52.401Z,7.60
2022-12-13T08:29:22.536Z,8.35
2022-12-13T08:32:10.822Z,7.63
2022-12-13T08:34:38.747Z,7.10
2022-12-13T08:37:05.973Z,6.90
2022-12-13T08:39:36.272Z,7.25
2022-12-13T08:42:18.333Z,6.90
2022-12-13T08:44:48.617Z,6.50
2022-12-13T08:47:24.446Z,6.40
2022-12-13T08:49:54.464Z,6.65
2022-12-13T08:52:23.669Z,6.30
2022-12-13T08:54:51.339Z,6.65
2022-12-13T08:57:18.508Z,6.15
2022-12-13T08:59:45.647Z,5.85
2022-12-13T09:02:14.402Z,6.13
2022-12-13T09:04:42.272Z,5.55
2022-12-13T09:07:09.335Z,5.27
2022-12-13T09:09:37.238Z,5.60
2022-12-13T09:12:10.861Z,5.95
2022-12-13T09:14:45.506Z,5.82
2022-12-13T09:17:24.494Z,6.68
2022-12-13T09:19:58.126Z,6.38
2022-12-13T09:22:34.020Z,6.35
2022-12-13T09:25:05.761Z,6.40
2022-12-13T09:27:41.843Z,7.68
2022-12-13T09:30:13.644Z,7.20
2022-12-13T09:32:41.111Z,6.25
2022-12-13T09:35:08.822Z,5.50
2022-12-13T09:37:39.869Z,5.95
2022-12-13T09:40:26.144Z,5.43
2022-12-13T09:43:11.831Z,7.07
2022-12-13T09:45:45.213Z,8.85
2022-12-13T09:48:22.882Z,8.63
2022-12-13T09:50:58.459Z,9.45
2022-12-13T09:53:40.311Z,8.00
2022-12-13T09:56:12.762Z,8.82
2022-12-13T09:58:39.872Z,10.25
2022-12-13T10:01:07.081Z,14.23
2022-12-13T10:03:34.623Z,11.65
2022-12-13T10:06:22.819Z,13.25
2022-12-13T10:08:57.735Z,10.10
2022-12-13T10:11:31.902Z,12.85
2022-12-13T10:14:12.292Z,12.50
2022-12-13T10:16:47.470Z,14.68
2022-12-13T10:19:29.009Z,13.77
2022-12-13T10:22:01.424Z,13.35
2022-12-13T10:24:52.372Z,11.25
2022-12-13T10:27:28.586Z,10.18
2022-12-13T10:30:12.429Z,8.13
2022-12-13T10:33:06.020Z,14.32
2022-12-13T10:35:38.777Z,16.48
2022-12-13T10:38:08.527Z,10.23
2022-12-13T10:40:38.400Z,8.55
2022-12-13T10:43:13.538Z,7.88
2022-12-13T10:45:43.462Z,9.23
2022-12-13T10:48:22.208Z,7.10
2022-12-13T10:51:01.648Z,6.22
2022-12-13T10:53:49.699Z,6.53
2022-12-13T10:56:22.421Z,5.60
2022-12-13T10:59:11.834Z,5.77
2022-12-13T11:01:42.461Z,6.05
2022-12-13T11:04:39.198Z,5.50
2022-12-13T11:07:30.220Z,6.47
2022-12-13T11:10:04.942Z,6.05
2022-12-13T11:12:33.092Z,5.25
2022-12-13T11:15:06.219Z,6.95
2022-12-13T11:17:45.561Z,5.10
2022-12-13T11:20:25.757Z,6.35
2022-12-13T11:23:33.897Z,6.25
2022-12-13T11:26:08.633Z,5.57
2022-12-13T11:29:00.162Z,5.88
2022-12-13T11:32:07.143Z,5.07
2022-12-13T11:35:03.148Z,4.80
2022-12-13T11:37:49.222Z,5.45
2022-12-13T11:40:46.774Z,4.80
2022-12-13T11:43:30.602Z,4.13
2022-12-13T11:46:01.664Z,4.85
2022-12-13T11:48:39.186Z,4.40
2022-12-13T11:51:11.011Z,4.57
2022-12-13T11:53:50.177Z,4.17
2022-12-13T11:56:33.366Z,4.50
2022-12-13T11:59:16.122Z,4.40
2022-12-13T12:02:05.369Z,3.92
2022-12-13T12:04:59.657Z,4.10
2022-12-13T12:08:05.327Z,4.13
2022-12-13T12:10:36.092Z,4.20
2022-12-13T12:13:15.336Z,4.15
2022-12-13T12:16:14.581Z,3.97
2022-12-13T12:18:41.706Z,4.13
2022-12-13T12:21:14.768Z,3.90
2022-12-13T12:23:51.019Z,4.40
2022-12-13T12:26:28.607Z,3.55
2022-12-13T12:29:17.710Z,3.83
2022-12-13T12:32:06.605Z,3.80
2022-12-13T12:34:39.838Z,3.83
2022-12-13T12:37:19.084Z,3.78
2022-12-13T12:40:07.928Z,3.42
2022-12-13T12:43:14.122Z,3.30
2022-12-13T12:46:04.702Z,3.58
2022-12-13T12:49:17.979Z,3.50
2022-12-13T12:52:02.217Z,3.63
2022-12-13T12:54:43.879Z,3.42
2022-12-13T12:57:54.741Z,3.65
2022-12-13T13:00:23.738Z,3.57
2022-12-13T13:03:18.819Z,3.00
2022-12-13T13:06:02.039Z,3.10
2022-12-13T13:08:34.073Z,5.60
2022-12-13T13:11:03.179Z,7.15
2022-12-13T13:13:49.639Z,5.10
2022-12-13T13:16:35.652Z,5.63
2022-12-13T13:19:05.555Z,4.70
2022-12-13T13:21:37.684Z,4.78
2022-12-13T13:24:07.833Z,3.83
2022-12-13T13:26:40.272Z,4.10
2022-12-13T13:29:28.630Z,5.82
2022-12-13T13:32:03.148Z,5.73
2022-12-13T13:34:34.067Z,5.20
2022-12-13T13:37:02.842Z,6.07
2022-12-13T13:39:33.735Z,5.70
2022-12-13T13:42:16.763Z,5.60
2022-12-13T13:44:49.539Z,5.57
2022-12-13T13:47:19.385Z,5.18
2022-12-13T13:50:05.274Z,5.25
2022-12-13T13:52:56.517Z,6.72
2022-12-13T13:55:44.765Z,10.50
2022-12-13T13:59:00.010Z,11.77
2022-12-13T14:01:46.004Z,20.13
2022-12-13T14:05:02.820Z,36.75
2022-12-13T14:08:20.294Z,23.08
2022-12-13T14:10:53.539Z,22.20
2022-12-13T14:13:45.342Z,19.67
2022-12-13T14:16:46.097Z,20.70
2022-12-13T14:19:45.885Z,18.08
2022-12-13T14:22:17.188Z,16.77
2022-12-13T14:24:56.662Z,15.23
2022-12-13T14:27:34.504Z,14.57
2022-12-13T14:30:02.179Z,14.85
2022-12-13T14:32:50.302Z,13.68
2022-12-13T14:35:25.760Z,12.73
2022-12-13T14:38:01.286Z,13.27
2022-12-13T14:40:37.238Z,11.85
2022-12-13T14:43:04.522Z,11.38
2022-12-13T14:45:37.543Z,10.95
2022-12-13T14:48:10.781Z,11.57
2022-12-13T14:50:39.684Z,10.43
2022-12-13T14:53:07.501Z,11.23
2022-12-13T14:55:37.230Z,10.90
2022-12-13T14:58:19.324Z,10.77
2022-12-13T15:00:49.149Z,10.13
2022-12-13T15:03:23.529Z,9.20
2022-12-13T15:05:59.926Z,9.33
2022-12-13T15:08:28.107Z,9.37
2022-12-13T15:10:59.484Z,8.57
2022-12-13T15:13:32.602Z,8.82
2022-12-13T15:16:10.061Z,9.05
2022-12-13T15:18:38.397Z,8.90
2022-12-13T15:21:20.728Z,8.45
2022-12-13T15:23:49.901Z,9.57
2022-12-13T15:26:27.633Z,8.95
2022-12-13T15:29:10.399Z,8.50
2022-12-13T15:31:38.897Z,8.20
2022-12-13T15:34:28.223Z,8.20
2022-12-13T15:37:29.708Z,7.57
2022-12-13T15:40:08.867Z,7.23
2022-12-13T15:42:38.884Z,7.90
2022-12-13T15:45:17.188Z,6.47
2022-12-13T15:47:46.753Z,7.10
2022-12-13T15:50:35.128Z,7.18
2022-12-13T15:53:19.477Z,6.95
2022-12-13T15:55:46.648Z,7.17
2022-12-13T15:58:26.330Z,6.40
2022-12-13T16:00:53.870Z,6.70
2022-12-13T16:03:24.639Z,7.00
2022-12-13T16:05:56.792Z,6.10
2022-12-13T16:08:26.496Z,6.22
2022-12-13T16:10:54.169Z,5.97
2022-12-13T16:13:29.998Z,6.05
2022-12-13T16:16:10.035Z,5.82
2022-12-13T16:18:53.764Z,6.05
2022-12-13T16:21:21.087Z,5.67
2022-12-13T16:23:49.291Z,5.35
2022-12-13T16:26:23.212Z,5.85
2022-12-13T16:28:50.556Z,7.00
2022-12-13T16:31:26.008Z,6.55
2022-12-13T16:33:53.080Z,6.20
2022-12-13T16:36:20.478Z,6.93
2022-12-13T16:38:47.617Z,6.88
2022-12-13T16:41:15.551Z,7.65
2022-12-13T16:44:00.882Z,6.65
2022-12-13T16:47:16.657Z,7.18
2022-12-13T16:49:21.000Z,6.57
2022-12-13T16:51:49.256Z,7.17
2022-12-13T16:54:20.415Z,6.82
2022-12-13T16:56:48.224Z,7.20
2022-12-13T16:59:17.478Z,7.30
2022-12-13T17:01:45.341Z,6.95
2022-12-13T17:04:19.256Z,8.48
2022-12-13T17:06:48.443Z,7.43
2022-12-13T17:09:15.889Z,6.55
2022-12-13T17:11:42.963Z,12.88
2022-12-13T17:14:10.382Z,9.73
2022-12-13T17:16:37.720Z,7.63
2022-12-13T17:19:05.038Z,7.40
2022-12-13T17:21:32.106Z,6.28
2022-12-13T17:24:01.362Z,6.80
2022-12-13T17:26:29.167Z,10.88
2022-12-13T17:28:56.528Z,9.43
2022-12-13T17:31:23.606Z,10.48
2022-12-13T17:33:50.702Z,6.43
2022-12-13T17:36:17.919Z,5.97
2022-12-13T17:38:47.099Z,4.43
2022-12-13T17:41:15.351Z,5.25
2022-12-13T17:43:43.471Z,5.07
2022-12-13T17:46:17.171Z,5.07
2022-12-13T17:48:47.965Z,4.93
2022-12-13T17:51:15.349Z,5.18
2022-12-13T17:53:44.029Z,4.77
2022-12-13T17:56:14.959Z,4.82
2022-12-13T17:58:42.380Z,4.70
2022-12-13T18:01:13.446Z,4.90
2022-12-13T18:03:40.714Z,4.70
2022-12-13T18:06:08.219Z,4.55
2022-12-13T18:08:36.373Z,5.03
2022-12-13T18:13:54.776Z,5.32
2022-12-13T18:16:24.184Z,5.22
2022-12-13T18:18:55.770Z,5.50
2022-12-13T18:21:24.667Z,5.55
2022-12-13T18:23:54.948Z,5.97
2022-12-13T18:26:24.332Z,5.90
2022-12-13T18:28:52.010Z,6.78
2022-12-13T18:31:22.496Z,5.03
2022-12-13T18:33:51.123Z,5.13
2022-12-13T18:36:20.267Z,5.50
2022-12-13T18:38:47.825Z,5.22
2022-12-13T18:41:18.298Z,5.13
2022-12-13T18:43:45.742Z,4.75
2022-12-13T18:46:14.354Z,5.13
2022-12-13T18:48:41.819Z,4.55
2022-12-13T18:51:10.371Z,4.05
2022-12-13T18:53:39.060Z,4.30
2022-12-13T18:56:12.886Z,6.78
2022-12-13T18:58:45.236Z,4.60
2022-12-13T19:01:12.928Z,5.22
2022-12-13T19:03:41.784Z,5.32
2022-12-13T19:06:10.989Z,4.60
2022-12-13T19:08:38.049Z,4.38
2022-12-13T19:11:05.393Z,3.97
2022-12-13T19:13:32.960Z,4.20
2022-12-13T19:16:08.813Z,4.53
2022-12-13T19:18:37.537Z,3.70
2022-12-13T19:21:07.785Z,4.47
2022-12-13T19:23:35.493Z,4.63
2022-12-13T19:26:07.182Z,4.35
2022-12-13T19:28:35.009Z,4.18
2022-12-13T19:31:06.360Z,4.20
2022-12-13T19:33:33.999Z,3.80
2022-12-13T19:36:01.874Z,4.45
2022-12-13T19:38:29.507Z,4.10
2022-12-13T19:40:56.606Z,4.50
2022-12-13T19:43:24.152Z,3.90
2022-12-13T19:45:51.578Z,4.05
2022-12-13T19:48:18.613Z,4.68
2022-12-13T19:50:45.671Z,5.13
2022-12-13T19:53:12.830Z,4.80
2022-12-13T19:55:45.297Z,4.68
2022-12-13T19:58:15.337Z,4.70
2022-12-13T20:00:42.483Z,5.50
2022-12-13T20:03:09.706Z,5.75
2022-12-13T20:05:38.079Z,7.57
2022-12-13T20:08:05.875Z,6.85
2022-12-13T20:10:37.106Z,7.75
2022-12-13T20:13:05.032Z,6.00
2022-12-13T20:15:32.170Z,7.07
2022-12-13T20:17:59.707Z,6.65
2022-12-13T20:20:40.976Z,7.30
2022-12-13T20:23:13.819Z,5.53
2022-12-13T20:25:40.864Z,6.00
2022-12-13T20:28:12.688Z,5.97
2022-12-13T20:30:43.076Z,4.95
2022-12-13T20:33:10.120Z,4.60
2022-12-13T20:35:54.184Z,4.63
2022-12-13T20:38:24.942Z,5.00
2022-12-13T20:40:52.047Z,4.40
2022-12-13T20:43:19.071Z,4.35
2022-12-13T20:45:46.136Z,4.28
2022-12-13T20:48:13.169Z,4.22
2022-12-13T20:50:40.216Z,4.07
2022-12-13T20:53:07.272Z,4.45
2022-12-13T20:55:35.092Z,3.70
2022-12-13T20:58:02.145Z,4.10
2022-12-13T21:00:29.565Z,3.70
2022-12-13T21:02:56.647Z,3.90
2022-12-13T21:05:23.711Z,3.80
2022-12-13T21:08:09.260Z,3.80
2022-12-13T21:10:36.317Z,3.80
2022-12-13T21:13:03.364Z,4.00
2022-12-13T21:15:30.457Z,3.80
2022-12-13T21:17:57.535Z,4.20
2022-12-13T21:20:27.700Z,6.07
2022-12-13T21:22:54.768Z,5.35
2022-12-13T21:25:21.817Z,5.47
2022-12-13T21:27:48.860Z,7.50
2022-12-13T21:30:15.900Z,6.20
2022-12-13T21:32:42.937Z,6.18
2022-12-13T21:35:11.681Z,6.38
2022-12-13T21:37:38.816Z,6.20
2022-12-13T21:40:06.625Z,6.55
2022-12-13T21:42:33.709Z,6.43
2022-12-13T21:45:02.456Z,7.03
2022-12-13T21:47:29.742Z,6.67
2022-12-13T21:49:56.769Z,7.47
2022-12-13T21:52:23.836Z,6.93
2022-12-13T21:54:52.913Z,7.83
2022-12-13T21:57:44.821Z,6.43
2022-12-13T22:00:12.525Z,6.60
2022-12-13T22:02:39.662Z,5.82
2022-12-13T22:05:07.237Z,6.13
2022-12-13T22:07:34.364Z,5.75
2022-12-13T22:10:02.005Z,5.18
2022-12-13T22:12:34.825Z,5.17
2022-12-13T22:15:02.622Z,4.95
2022-12-13T22:17:35.128Z,4.63
2022-12-13T22:20:06.031Z,4.22
2022-12-13T22:22:33.319Z,4.70
2022-12-13T22:25:00.671Z,4.20
2022-12-13T22:27:27.774Z,4.47
2022-12-13T22:29:57.172Z,4.10
2022-12-13T22:32:26.800Z,4.38
2022-12-13T22:34:54.194Z,4.30
2022-12-13T22:37:22.033Z,5.00
2022-12-13T22:39:49.656Z,4.80
2022-12-13T22:42:16.983Z,4.75
2022-12-13T22:44:44.056Z,5.10
2022-12-13T22:47:11.105Z,6.43
2022-12-13T22:49:38.327Z,6.30
2022-12-13T22:52:05.457Z,8.73
2022-12-13T22:54:32.554Z,8.68
2022-12-13T22:56:59.611Z,9.93
2022-12-13T22:59:26.694Z,7.95
2022-12-13T23:02:02.120Z,8.20
2022-12-13T23:04:31.609Z,8.50
2022-12-13T23:06:58.933Z,7.68
2022-12-13T23:09:26.113Z,7.68
2022-12-13T23:12:11.787Z,7.30
2022-12-13T23:14:38.882Z,9.17
2022-12-13T23:17:06.258Z,7.87
2022-12-13T23:19:50.127Z,7.43
2022-12-13T23:22:20.450Z,8.95
2022-12-13T23:24:47.513Z,6.93
2022-12-13T23:27:14.597Z,7.05
2022-12-13T23:29:41.654Z,5.00
2022-12-13T23:32:08.699Z,4.47
2022-12-13T23:34:35.758Z,8.40
2022-12-13T23:37:02.807Z,10.27
2022-12-13T23:39:29.871Z,8.15
2022-12-13T23:41:56.919Z,7.90
2022-12-13T23:44:24.712Z,7.13
2022-12-13T23:46:51.756Z,8.82
2022-12-13T23:49:19.707Z,8.00
2022-12-13T23:51:46.748Z,8.90
2022-12-13T23:54:16.428Z,8.65
2022-12-13T23:56:43.709Z,7.95
2022-12-13T23:59:11.140Z,8.98
